createdAt,value
2018-11-29T00:01:01.354Z,28.90
2018-11-29T00:03:31.111Z,27.95
2018-11-29T00:05:59.955Z,29.52
2018-11-29T00:08:28.947Z,29.00
2018-11-29T00:10:56.984Z,27.85
2018-11-29T00:13:27.030Z,27.40
2018-11-29T00:15:55.080Z,26.12
2018-11-29T00:18:23.883Z,26.25
2018-11-29T00:20:53.403Z,27.73
2018-11-29T00:23:22.750Z,26.48
2018-11-29T00:25:52.270Z,27.80
2018-11-29T00:28:21.339Z,26.95
2018-11-29T00:30:50.072Z,24.35
2018-11-29T00:33:20.274Z,26.55
2018-11-29T00:35:48.383Z,26.80
2018-11-29T00:38:18.119Z,27.15
2018-11-29T00:40:47.794Z,29.90
2018-11-29T00:43:16.828Z,27.85
2018-11-29T00:45:44.923Z,27.75
2018-11-29T00:48:12.944Z,26.00
2018-11-29T00:50:41.215Z,27.95
2018-11-29T00:53:09.462Z,28.42
2018-11-29T00:55:39.046Z,31.50
2018-11-29T00:58:08.290Z,30.35
2018-11-29T01:00:37.632Z,29.70
2018-11-29T01:03:06.540Z,27.90
2018-11-29T01:05:35.291Z,29.25
2018-11-29T01:08:03.440Z,29.32
2018-11-29T01:10:32.951Z,28.73
2018-11-29T01:13:01.168Z,31.40
2018-11-29T01:15:30.807Z,32.50
2018-11-29T01:18:00.352Z,31.30
2018-11-29T01:20:29.394Z,27.62
2018-11-29T01:22:58.001Z,29.42
2018-11-29T01:25:27.466Z,25.88
2018-11-29T01:27:55.691Z,26.75
2018-11-29T01:30:24.791Z,27.48
2018-11-29T01:32:52.934Z,27.27
2018-11-29T01:35:21.063Z,27.87
2018-11-29T01:37:49.551Z,26.55
2018-11-29T01:40:21.192Z,30.65
2018-11-29T01:42:57.182Z,29.23
2018-11-29T01:45:25.688Z,29.90
2018-11-29T01:47:54.657Z,33.08
2018-11-29T01:50:23.811Z,29.32
2018-11-29T01:52:52.054Z,30.68
2018-11-29T01:55:20.747Z,29.72
2018-11-29T01:57:50.300Z,31.20
2018-11-29T02:00:18.655Z,29.57
2018-11-29T02:02:48.844Z,31.55
2018-11-29T02:05:17.663Z,30.50
2018-11-29T02:07:46.867Z,31.05
2018-11-29T02:10:21.838Z,30.95
2018-11-29T02:12:51.958Z,32.90
2018-11-29T02:15:20.141Z,32.80
2018-11-29T02:17:49.409Z,31.82
2018-11-29T02:20:18.821Z,30.95
2018-11-29T02:22:47.581Z,31.55
2018-11-29T02:25:15.842Z,29.92
2018-11-29T02:27:44.642Z,31.42
2018-11-29T02:30:14.896Z,32.33
2018-11-29T02:32:44.607Z,29.72
2018-11-29T02:35:13.116Z,28.42
2018-11-29T02:37:41.929Z,29.25
2018-11-29T02:40:12.121Z,28.77
2018-11-29T02:42:40.739Z,28.07
2018-11-29T02:45:16.142Z,28.15
2018-11-29T02:47:44.355Z,31.02
2018-11-29T02:50:13.247Z,28.23
2018-11-29T02:52:43.007Z,29.90
2018-11-29T02:55:11.633Z,27.98
2018-11-29T02:57:40.205Z,26.95
2018-11-29T03:00:16.590Z,29.35
2018-11-29T03:02:45.276Z,31.73
2018-11-29T03:05:14.960Z,28.75
2018-11-29T03:07:43.720Z,31.05
2018-11-29T03:10:14.105Z,31.93
2018-11-29T03:12:43.292Z,34.30
2018-11-29T03:15:14.694Z,32.10
2018-11-29T03:17:43.446Z,32.67
2018-11-29T03:20:13.015Z,35.08
2018-11-29T03:22:42.851Z,37.17
2018-11-29T03:25:13.437Z,29.25
2018-11-29T03:27:41.598Z,30.05
2018-11-29T03:30:15.865Z,29.48
2018-11-29T03:32:44.677Z,37.35
2018-11-29T03:35:14.676Z,34.10
2018-11-29T03:37:43.396Z,35.80
2018-11-29T03:40:12.647Z,32.25
2018-11-29T03:42:42.158Z,34.50
2018-11-29T03:45:11.232Z,31.52
2018-11-29T03:47:40.774Z,32.83
2018-11-29T03:50:12.123Z,33.67
2018-11-29T03:52:41.108Z,33.18
2018-11-29T03:55:10.353Z,32.13
2018-11-29T03:57:39.824Z,32.65
2018-11-29T04:00:16.741Z,33.90
2018-11-29T04:02:46.335Z,33.53
2018-11-29T04:05:15.248Z,33.40
2018-11-29T04:07:43.636Z,32.15
2018-11-29T04:10:12.766Z,33.23
2018-11-29T04:12:41.672Z,33.63
2018-11-29T04:15:12.920Z,33.73
2018-11-29T04:17:41.435Z,33.35
2018-11-29T04:20:11.806Z,32.48
2018-11-29T04:22:39.956Z,34.20
2018-11-29T04:25:10.206Z,35.78
2018-11-29T04:27:38.898Z,32.65
2018-11-29T04:30:10.475Z,33.08
2018-11-29T04:32:39.455Z,31.65
2018-11-29T04:35:09.171Z,32.88
2018-11-29T04:37:37.708Z,34.05
2018-11-29T04:40:08.793Z,35.88
2018-11-29T04:42:38.269Z,33.28
2018-11-29T04:45:09.765Z,33.00
2018-11-29T04:47:37.880Z,33.73
2018-11-29T04:50:06.373Z,34.30
2018-11-29T04:52:35.567Z,31.15
2018-11-29T04:55:03.886Z,35.88
2018-11-29T04:57:32.244Z,34.05
2018-11-29T05:00:02.449Z,33.73
2018-11-29T05:02:30.552Z,34.78
2018-11-29T05:04:59.509Z,34.80
2018-11-29T05:07:28.501Z,34.20
2018-11-29T05:09:58.434Z,30.90
2018-11-29T05:12:26.467Z,30.92
2018-11-29T05:14:55.411Z,31.87
2018-11-29T05:17:24.815Z,34.23
2018-11-29T05:19:53.839Z,32.30
2018-11-29T05:22:23.349Z,33.88
2018-11-29T05:24:53.571Z,34.23
2018-11-29T05:27:22.485Z,36.10
2018-11-29T05:29:51.458Z,34.00
2018-11-29T05:32:20.347Z,33.80
2018-11-29T05:34:49.141Z,33.95
2018-11-29T05:37:17.398Z,31.97
2018-11-29T05:39:45.408Z,34.63
2018-11-29T05:42:15.393Z,36.10
2018-11-29T05:44:44.461Z,36.77
2018-11-29T05:47:13.855Z,37.13
2018-11-29T05:49:43.880Z,34.27
2018-11-29T05:52:12.802Z,35.38
2018-11-29T05:54:41.003Z,35.10
2018-11-29T05:57:09.425Z,35.30
2018-11-29T05:59:38.978Z,35.45
2018-11-29T06:02:08.440Z,34.33
2018-11-29T06:04:37.965Z,34.90
2018-11-29T06:07:07.013Z,37.50
2018-11-29T06:09:35.356Z,35.48
2018-11-29T06:12:03.613Z,38.00
2018-11-29T06:14:35.329Z,36.17
2018-11-29T06:17:04.844Z,34.58
2018-11-29T06:19:34.311Z,35.08
2018-11-29T06:22:03.142Z,36.75
2018-11-29T06:24:31.762Z,34.63
2018-11-29T06:26:59.884Z,34.83
2018-11-29T06:29:31.921Z,38.63
2018-11-29T06:32:01.011Z,38.25
2018-11-29T06:34:30.086Z,34.35
2018-11-29T06:36:58.774Z,35.50
2018-11-29T06:39:28.128Z,33.88
2018-11-29T06:41:56.290Z,37.00
2018-11-29T06:44:26.466Z,38.98
2018-11-29T06:46:54.647Z,37.50
2018-11-29T06:49:23.324Z,37.08
2018-11-29T06:51:52.183Z,37.67
2018-11-29T06:54:20.702Z,38.83
2018-11-29T06:56:50.691Z,35.60
2018-11-29T06:59:21.066Z,35.85
2018-11-29T07:01:51.092Z,39.45
2018-11-29T07:04:21.271Z,37.33
2018-11-29T07:06:51.385Z,35.98
2018-11-29T07:09:21.032Z,36.80
2018-11-29T07:11:50.117Z,37.10
2018-11-29T07:14:19.257Z,37.38
2018-11-29T07:16:48.468Z,36.58
2018-11-29T07:19:17.247Z,36.55
2018-11-29T07:21:53.211Z,35.85
2018-11-29T07:24:23.324Z,35.33
2018-11-29T07:26:52.979Z,35.43
2018-11-29T07:29:29.559Z,38.90
2018-11-29T07:31:57.810Z,37.23
2018-11-29T07:34:26.035Z,40.30
2018-11-29T07:36:54.570Z,40.70
2018-11-29T07:39:23.959Z,37.03
2018-11-29T07:41:52.014Z,38.05
2018-11-29T07:44:20.856Z,36.83
2018-11-29T07:46:49.591Z,38.25
2018-11-29T07:49:18.504Z,34.53
2018-11-29T07:51:46.685Z,38.67
2018-11-29T07:54:15.904Z,36.65
2018-11-29T07:56:46.222Z,38.40
2018-11-29T07:59:18.599Z,40.38
2018-11-29T08:01:47.348Z,39.58
2018-11-29T08:04:16.799Z,38.50
2018-11-29T08:06:45.169Z,39.78
2018-11-29T08:09:14.755Z,35.98
2018-11-29T08:11:43.405Z,37.83
2018-11-29T08:14:12.839Z,38.23
2018-11-29T08:16:41.837Z,40.28
2018-11-29T08:19:10.450Z,39.67
2018-11-29T08:21:38.862Z,41.63
2018-11-29T08:24:07.679Z,44.93
2018-11-29T08:26:37.114Z,37.85
2018-11-29T08:29:05.937Z,42.85
2018-11-29T08:31:34.466Z,42.70
2018-11-29T08:34:03.939Z,35.68
2018-11-29T08:36:31.983Z,34.65
2018-11-29T08:39:00.781Z,33.10
2018-11-29T08:41:29.725Z,35.63
2018-11-29T08:43:58.822Z,33.70
2018-11-29T08:46:28.549Z,32.55
2018-11-29T08:48:56.657Z,34.33
2018-11-29T08:51:25.575Z,32.65
2018-11-29T08:53:53.937Z,29.82
2018-11-29T08:56:23.657Z,35.45
2018-11-29T08:58:54.142Z,29.90
2018-11-29T09:01:23.612Z,33.55
2018-11-29T09:03:52.217Z,30.35
2018-11-29T09:06:21.969Z,29.07
2018-11-29T09:08:51.540Z,27.65
2018-11-29T09:11:20.161Z,25.40
2018-11-29T09:13:48.973Z,23.40
2018-11-29T09:16:18.139Z,25.95
2018-11-29T09:18:46.923Z,21.23
2018-11-29T09:21:15.433Z,20.97
2018-11-29T09:23:43.912Z,21.70
2018-11-29T09:26:12.231Z,20.00
2018-11-29T09:28:40.399Z,21.00
2018-11-29T09:31:09.467Z,19.70
2018-11-29T09:33:41.463Z,19.75
2018-11-29T09:36:11.181Z,21.20
2018-11-29T09:38:39.920Z,19.32
2018-11-29T09:41:08.394Z,18.77
2018-11-29T09:43:37.867Z,18.30
2018-11-29T09:46:07.272Z,19.57
2018-11-29T09:48:38.266Z,19.42
2018-11-29T09:51:07.298Z,21.05
2018-11-29T09:53:36.954Z,20.23
2018-11-29T09:56:07.333Z,20.97
2018-11-29T09:58:36.391Z,21.45
2018-11-29T10:01:05.174Z,21.85
2018-11-29T10:03:34.676Z,28.95
2018-11-29T10:06:04.054Z,23.95
2018-11-29T10:08:33.274Z,19.90
2018-11-29T10:11:03.826Z,24.87
2018-11-29T10:13:33.950Z,28.77
2018-11-29T10:16:02.617Z,24.87
2018-11-29T10:18:32.147Z,22.93
2018-11-29T10:21:00.931Z,20.97
2018-11-29T10:23:30.379Z,22.58
2018-11-29T10:26:00.075Z,21.48
2018-11-29T10:28:29.526Z,21.30
2018-11-29T10:31:00.370Z,24.32
2018-11-29T10:33:29.075Z,19.95
2018-11-29T10:36:00.006Z,26.57
2018-11-29T10:38:32.173Z,20.02
2018-11-29T10:41:03.619Z,20.68
2018-11-29T10:43:33.928Z,20.37
2018-11-29T10:46:04.061Z,20.88
2018-11-29T10:48:33.540Z,19.70
2018-11-29T10:51:03.428Z,20.32
2018-11-29T10:53:37.018Z,21.12
2018-11-29T10:56:00.288Z,18.55
2018-11-29T10:58:29.481Z,22.50
2018-11-29T11:01:05.784Z,20.83
2018-11-29T11:03:34.594Z,21.25
2018-11-29T11:06:03.830Z,19.20
2018-11-29T11:08:32.240Z,20.20
2018-11-29T11:11:08.945Z,18.15
2018-11-29T11:13:38.422Z,19.42
2018-11-29T11:16:07.475Z,20.77
2018-11-29T11:18:37.427Z,19.15
2018-11-29T11:21:06.948Z,23.05
2018-11-29T11:23:36.586Z,22.45
2018-11-29T11:26:06.047Z,21.73
2018-11-29T11:28:35.195Z,23.10
2018-11-29T11:31:07.568Z,22.32
2018-11-29T11:33:37.155Z,21.30
2018-11-29T11:36:07.989Z,22.43
2018-11-29T11:38:36.576Z,22.97
2018-11-29T11:41:09.506Z,23.30
2018-11-29T11:43:39.511Z,24.83
2018-11-29T11:46:09.255Z,23.50
2018-11-29T11:48:39.790Z,24.30
2018-11-29T11:51:09.021Z,24.00
2018-11-29T11:53:38.565Z,25.50
2018-11-29T11:56:08.983Z,24.63
2018-11-29T11:58:39.489Z,23.97
2018-11-29T12:01:11.022Z,25.60
2018-11-29T12:03:42.472Z,25.37
2018-11-29T12:06:11.884Z,25.75
2018-11-29T12:08:47.216Z,25.72
2018-11-29T12:11:15.383Z,27.17
2018-11-29T12:13:50.130Z,25.47
2018-11-29T12:16:18.563Z,29.87
2018-11-29T12:18:51.286Z,27.40
2018-11-29T12:21:22.810Z,29.57
2018-11-29T12:23:51.718Z,23.60
2018-11-29T12:26:21.264Z,30.70
2018-11-29T12:28:56.266Z,35.80
2018-11-29T12:31:29.149Z,23.10
2018-11-29T12:34:02.368Z,23.27
2018-11-29T12:36:33.478Z,22.00
2018-11-29T12:39:03.228Z,22.90
2018-11-29T12:41:33.468Z,23.20
2018-11-29T12:44:04.040Z,21.83
2018-11-29T12:46:34.812Z,27.40
2018-11-29T12:49:05.603Z,23.00
2018-11-29T12:51:35.314Z,22.37
2018-11-29T12:54:06.281Z,22.50
2018-11-29T12:56:35.367Z,30.70
2018-11-29T12:59:05.078Z,20.60
2018-11-29T13:01:36.004Z,29.43
2018-11-29T13:04:08.407Z,25.60
2018-11-29T13:06:37.507Z,18.23
2018-11-29T13:09:08.837Z,17.23
2018-11-29T13:11:38.223Z,19.20
2018-11-29T13:14:08.159Z,18.03
2018-11-29T13:16:37.715Z,18.73
2018-11-29T13:19:07.562Z,17.80
2018-11-29T13:21:35.949Z,18.97
2018-11-29T13:24:05.770Z,18.43
2018-11-29T13:26:36.499Z,17.27
2018-11-29T13:29:06.298Z,18.03
2018-11-29T13:31:35.060Z,16.60
2018-11-29T13:34:04.794Z,19.98
2018-11-29T13:36:37.053Z,22.10
2018-11-29T13:39:09.607Z,21.03
2018-11-29T13:41:38.795Z,18.97
2018-11-29T13:44:09.493Z,18.50
2018-11-29T13:49:09.917Z,19.77
2018-11-29T13:51:38.951Z,21.43
2018-11-29T13:54:08.333Z,21.70
2018-11-29T13:56:38.605Z,20.63
2018-11-29T13:59:07.556Z,23.60
2018-11-29T14:01:36.193Z,26.10
2018-11-29T14:04:05.138Z,33.80
2018-11-29T14:06:35.549Z,21.27
2018-11-29T14:09:06.182Z,30.97
2018-11-29T14:11:35.765Z,17.30
2018-11-29T14:14:08.047Z,19.17
2018-11-29T14:16:36.131Z,28.23
2018-11-29T14:19:05.176Z,24.75
2018-11-29T14:21:35.086Z,28.27
2018-11-29T14:24:04.828Z,23.15
2018-11-29T14:26:34.023Z,29.27
2018-11-29T14:29:07.852Z,28.32
2018-11-29T14:31:36.923Z,18.80
2018-11-29T14:34:06.021Z,20.32
2018-11-29T14:36:34.207Z,19.67
2018-11-29T14:39:03.947Z,19.62
2018-11-29T14:41:32.056Z,17.92
2018-11-29T14:44:01.491Z,19.10
2018-11-29T14:46:30.470Z,19.65
2018-11-29T14:48:58.648Z,18.82
2018-11-29T14:51:27.679Z,18.17
2018-11-29T14:53:57.145Z,18.27
2018-11-29T14:56:26.433Z,20.27
2018-11-29T14:58:55.886Z,18.50
2018-11-29T15:01:27.095Z,18.10
2018-11-29T15:03:57.824Z,16.50
2018-11-29T15:06:27.799Z,15.68
2018-11-29T15:08:56.811Z,16.50
2018-11-29T15:11:29.362Z,18.35
2018-11-29T15:13:57.487Z,18.15
2018-11-29T15:16:25.661Z,18.50
2018-11-29T15:18:55.673Z,16.37
2018-11-29T15:21:25.794Z,19.98
2018-11-29T15:23:55.583Z,20.77
2018-11-29T15:26:23.787Z,23.10
2018-11-29T15:28:52.980Z,19.75
2018-11-29T15:31:33.333Z,22.32
2018-11-29T15:34:02.927Z,19.75
2018-11-29T15:36:32.697Z,20.25
2018-11-29T15:39:04.086Z,27.20
2018-11-29T15:41:36.092Z,16.42
2018-11-29T15:44:05.721Z,19.67
2018-11-29T15:46:38.280Z,29.07
2018-11-29T15:49:07.105Z,23.15
2018-11-29T15:51:35.575Z,20.95
2018-11-29T15:54:04.933Z,16.48
2018-11-29T15:56:34.125Z,14.50
2018-11-29T15:59:04.916Z,19.52
2018-11-29T16:01:34.435Z,17.77
2018-11-29T16:04:08.978Z,14.53
2018-11-29T16:06:37.875Z,20.12
2018-11-29T16:09:10.143Z,17.77
2018-11-29T16:11:39.132Z,15.50
2018-11-29T16:14:09.124Z,13.68
2018-11-29T16:16:39.682Z,17.82
2018-11-29T16:19:09.527Z,16.10
2018-11-29T16:21:39.972Z,19.65
2018-11-29T16:24:10.313Z,17.23
2018-11-29T16:26:40.876Z,14.87
2018-11-29T16:29:11.410Z,19.12
2018-11-29T16:31:45.605Z,17.02
2018-11-29T16:34:16.870Z,14.68
2018-11-29T16:36:47.759Z,15.50
2018-11-29T16:39:18.437Z,12.90
2018-11-29T16:41:49.080Z,14.00
2018-11-29T16:44:20.825Z,15.03
2018-11-29T16:46:50.213Z,16.45
2018-11-29T16:49:20.040Z,12.78
2018-11-29T16:51:53.362Z,12.35
2018-11-29T16:54:22.114Z,17.85
2018-11-29T16:56:53.809Z,17.42
2018-11-29T16:59:22.550Z,13.85
2018-11-29T17:01:50.835Z,13.90
2018-11-29T17:04:26.491Z,13.50
2018-11-29T17:06:56.569Z,14.10
2018-11-29T17:09:31.058Z,15.48
2018-11-29T17:12:01.506Z,13.78
2018-11-29T17:14:33.422Z,22.32
2018-11-29T17:17:04.767Z,18.35
2018-11-29T17:19:35.909Z,21.10
2018-11-29T17:22:04.753Z,15.55
2018-11-29T17:24:36.963Z,14.78
2018-11-29T17:27:06.857Z,14.65
2018-11-29T17:29:35.364Z,26.07
2018-11-29T17:32:05.773Z,34.00
2018-11-29T17:34:36.314Z,17.00
2018-11-29T17:37:05.414Z,24.20
2018-11-29T17:39:40.512Z,16.15
2018-11-29T17:42:15.890Z,15.88
2018-11-29T17:44:48.366Z,15.93
2018-11-29T17:47:21.241Z,15.43
2018-11-29T17:52:35.695Z,13.98
2018-11-29T17:55:05.330Z,13.53
2018-11-29T17:57:39.913Z,14.58
2018-11-29T18:00:23.896Z,15.60
2018-11-29T18:02:56.905Z,14.75
2018-11-29T18:05:31.895Z,14.35
2018-11-29T18:08:03.441Z,16.23
2018-11-29T18:10:34.813Z,14.43
2018-11-29T18:13:15.722Z,15.15
2018-11-29T18:15:44.718Z,17.25
2018-11-29T18:18:19.918Z,21.05
2018-11-29T18:20:50.490Z,20.52
2018-11-29T18:23:22.830Z,15.35
2018-11-29T18:25:53.347Z,17.48
2018-11-29T18:28:28.893Z,19.45
2018-11-29T18:31:00.154Z,18.00
2018-11-29T18:33:30.236Z,16.15
2018-11-29T18:36:06.495Z,21.73
2018-11-29T18:38:35.653Z,17.07
2018-11-29T18:41:08.323Z,39.30
2018-11-29T18:43:38.648Z,17.82
2018-11-29T18:46:17.112Z,16.30
2018-11-29T18:48:45.789Z,23.80
2018-11-29T18:51:15.575Z,15.78
2018-11-29T18:53:46.350Z,26.05
2018-11-29T18:56:17.415Z,25.72
2018-11-29T18:58:48.137Z,47.23
2018-11-29T19:01:18.431Z,40.70
2018-11-29T19:03:48.792Z,27.15
2018-11-29T19:06:23.651Z,22.52
2018-11-29T19:08:53.541Z,27.67
2018-11-29T19:11:29.413Z,21.25
2018-11-29T19:14:04.540Z,20.57
2018-11-29T19:19:35.707Z,17.25
2018-11-29T19:22:08.262Z,19.15
2018-11-29T19:24:40.943Z,17.73
2018-11-29T19:27:23.454Z,18.23
2018-11-29T19:29:56.238Z,20.10
2018-11-29T19:35:21.733Z,34.55
2018-11-29T19:37:59.266Z,36.58
2018-11-29T19:40:34.952Z,19.52
2018-11-29T19:43:14.524Z,22.15
2018-11-29T19:45:50.207Z,25.02
2018-11-29T19:48:21.226Z,23.67
2018-11-29T19:50:52.403Z,34.75
2018-11-29T19:53:23.873Z,28.73
2018-11-29T19:55:58.364Z,19.23
2018-11-29T19:58:29.406Z,23.50
2018-11-29T20:01:13.141Z,24.07
2018-11-29T20:03:48.705Z,23.57
2018-11-29T20:06:34.974Z,21.42
2018-11-29T20:09:13.530Z,22.25
2018-11-29T20:11:43.385Z,22.25
2018-11-29T20:14:14.915Z,21.20
2018-11-29T20:16:55.528Z,19.82
2018-11-29T20:19:29.983Z,20.82
2018-11-29T20:22:05.618Z,21.73
2018-11-29T20:24:41.770Z,20.30
2018-11-29T20:27:15.778Z,19.92
2018-11-29T20:29:48.766Z,20.00
2018-11-29T20:32:37.704Z,20.48
2018-11-29T20:35:14.144Z,21.57
2018-11-29T20:37:44.379Z,21.30
2018-11-29T20:40:17.587Z,21.20
2018-11-29T20:45:26.930Z,19.37
2018-11-29T20:47:59.380Z,25.37
2018-11-29T20:50:31.124Z,22.05
2018-11-29T20:53:01.925Z,24.87
2018-11-29T20:55:38.621Z,23.57
2018-11-29T20:58:15.449Z,20.40
2018-11-29T21:00:46.821Z,21.48
2018-11-29T21:03:20.000Z,20.60
2018-11-29T21:05:55.148Z,22.07
2018-11-29T21:11:12.180Z,19.37
2018-11-29T21:13:43.866Z,20.77
2018-11-29T21:16:16.392Z,22.50
2018-11-29T21:18:44.994Z,21.15
2018-11-29T21:21:15.186Z,23.42
2018-11-29T21:23:43.909Z,22.65
2018-11-29T21:26:14.131Z,20.60
2018-11-29T21:28:48.532Z,20.68
2018-11-29T21:31:20.499Z,23.10
2018-11-29T21:33:52.977Z,23.10
2018-11-29T21:36:25.660Z,23.30
2018-11-29T21:38:54.038Z,26.40
2018-11-29T21:41:23.485Z,26.02
2018-11-29T21:43:52.437Z,28.92
2018-11-29T21:46:30.679Z,21.93
2018-11-29T21:49:01.151Z,24.87
2018-11-29T21:51:32.357Z,25.20
2018-11-29T21:54:01.330Z,23.15
2018-11-29T21:56:29.686Z,24.18
2018-11-29T21:58:59.399Z,24.52
2018-11-29T22:01:32.311Z,22.77
2018-11-29T22:04:02.831Z,22.35
2018-11-29T22:06:32.464Z,23.35
2018-11-29T22:09:03.264Z,24.50
2018-11-29T22:11:34.719Z,24.40
2018-11-29T22:14:04.805Z,23.22
2018-11-29T22:16:33.717Z,23.12
2018-11-29T22:19:02.598Z,23.55
2018-11-29T22:21:31.737Z,24.40
2018-11-29T22:24:02.758Z,23.98
2018-11-29T22:26:33.391Z,23.95
2018-11-29T22:29:01.750Z,25.02
2018-11-29T22:31:30.302Z,25.77
2018-11-29T22:34:00.517Z,25.48
2018-11-29T22:36:30.087Z,24.50
2018-11-29T22:38:59.030Z,24.00
2018-11-29T22:41:27.573Z,24.50
2018-11-29T22:43:55.851Z,26.07
2018-11-29T22:46:25.359Z,23.22
2018-11-29T22:48:54.421Z,24.40
2018-11-29T22:51:23.750Z,24.60
2018-11-29T22:53:53.203Z,26.27
2018-11-29T22:56:22.358Z,24.65
2018-11-29T22:58:52.098Z,25.40
2018-11-29T23:01:27.195Z,25.27
2018-11-29T23:03:55.999Z,25.57
2018-11-29T23:06:25.460Z,25.10
2018-11-29T23:08:54.764Z,24.45
2018-11-29T23:11:22.823Z,24.50
2018-11-29T23:13:51.351Z,26.37
2018-11-29T23:16:21.485Z,25.62
2018-11-29T23:18:50.302Z,24.60
2018-11-29T23:21:20.051Z,23.45
2018-11-29T23:23:48.835Z,24.02
2018-11-29T23:26:16.956Z,24.82
2018-11-29T23:28:47.522Z,27.10
2018-11-29T23:31:15.669Z,24.35
2018-11-29T23:33:44.462Z,25.52
2018-11-29T23:36:15.363Z,25.90
2018-11-29T23:38:43.391Z,25.12
2018-11-29T23:41:13.029Z,24.20
2018-11-29T23:43:41.765Z,27.02
2018-11-29T23:46:10.061Z,25.43
2018-11-29T23:48:39.413Z,25.12
2018-11-29T23:51:07.413Z,25.12
2018-11-29T23:53:36.966Z,25.17
2018-11-29T23:56:06.817Z,24.45
2018-11-29T23:58:35.942Z,24.05
